»·PEaware :: N55NT KSNA-KVGT

N55NT :: KSNA-KVGT

FLIGHT INFORMATION

Flight Status: Arrived
Operator: Privately registered:
United States
More flights under this callsign
Pilot: Craig H. (6968)
Aircraft: BEECH AIRCRAFT PREMIER
(PRM1)
More flights by this aircraft type
Origin: KSNA John Wayne-Orange Co
United States
Destination: KVGT North Las Vegas
United States
More flights between these airports :: More routes between these airports
Route: MUSEL8 DAG CLARR3
File this flight plan on PilotEdge
Remarks:
Altitude:
(Current/Filed)
29,000ft
Speed:
(Current/Filed)
400kts
Departed: 23-Jul-20 03:50 PM
Arrived: 23-Jul-20 04:31 PM
Distance/Time
Traveled:
201nm/0:41
Distance/Time
To Go:
Arrived

Flight Plot

Page will automatically refresh every two minutes.

Flight plan parsing failed; only flown route is shown


Map Options




Map Legend


Flown Route
Filed Route
Departure Airport
Arrival Airport
Navaid (VOR, NDB)
Fix

Horizontal Profiles

Position Reports

Time Latitude Longitude Heading Altitude Ground
Speed
23-Jul-20 15:34 33.665890 -117.873062 40 63ft 0kts
23-Jul-20 15:35 33.665890 -117.873062 40 63ft 0kts
23-Jul-20 15:36 33.665890 -117.873062 40 63ft 0kts
23-Jul-20 15:37 33.665890 -117.873062 40 63ft 0kts
23-Jul-20 15:38 33.665890 -117.873062 40 63ft 0kts
23-Jul-20 15:39 33.665890 -117.873062 40 63ft 0kts
23-Jul-20 15:40 33.665894 -117.873058 41 63ft 1kts
23-Jul-20 15:41 33.666150 -117.873186 319 63ft 1kts
23-Jul-20 15:42 33.666194 -117.873232 318 63ft 0kts
23-Jul-20 15:43 33.667369 -117.872720 36 63ft 12kts
23-Jul-20 15:44 33.670124 -117.869903 40 63ft 13kts
23-Jul-20 15:45 33.673312 -117.867126 42 63ft 14kts
23-Jul-20 15:46 33.677076 -117.864610 28 63ft 16kts
23-Jul-20 15:47 33.680638 -117.863041 298 63ft 6kts
23-Jul-20 15:48 33.681332 -117.864672 297 63ft 12kts
23-Jul-20 15:49 33.659665 -117.879135 209 1257ft 189kts
23-Jul-20 15:50 33.611778 -117.896329 190 4244ft 190kts
23-Jul-20 15:51 33.609833 -117.949915 330 8300ft 251kts
23-Jul-20 15:52 33.674525 -117.985426 331 12521ft 267kts
23-Jul-20 15:53 33.741473 -118.027777 329 16199ft 282kts
23-Jul-20 15:54 33.823609 -118.018265 36 18434ft 340kts
23-Jul-20 15:55 33.897762 -117.951252 35 21984ft 326kts
23-Jul-20 15:56 33.970753 -117.884868 35 24502ft 338kts
23-Jul-20 15:57 34.046727 -117.815777 35 26677ft 351kts
23-Jul-20 15:58 34.118429 -117.733275 47 28582ft 364kts
23-Jul-20 15:59 34.189581 -117.637168 47 29002ft 411kts
23-Jul-20 16:00 34.269651 -117.528837 47 28997ft 452kts
23-Jul-20 16:01 34.355521 -117.412344 47 28977ft 475kts
23-Jul-20 16:02 34.444382 -117.291410 47 28975ft 487kts
23-Jul-20 16:03 34.534806 -117.167909 47 28975ft 493kts
23-Jul-20 16:04 34.625855 -117.043125 48 29012ft 495kts
23-Jul-20 16:05 34.716650 -116.918242 48 28937ft 491kts
23-Jul-20 16:06 34.806084 -116.794788 48 28217ft 490kts
23-Jul-20 16:07 34.896177 -116.669966 48 26738ft 493kts
23-Jul-20 16:08 34.986877 -116.545493 45 25261ft 493kts
23-Jul-20 16:09 35.083546 -116.426790 45 23956ft 488kts
23-Jul-20 16:10 35.176526 -116.310790 46 22782ft 468kts
23-Jul-20 16:11 35.266030 -116.198474 46 20961ft 456kts
23-Jul-20 16:12 35.353163 -116.088769 46 19151ft 446kts
23-Jul-20 16:13 35.438375 -115.981132 46 17348ft 437kts
23-Jul-20 16:14 35.521875 -115.875312 47 15695ft 427kts
23-Jul-20 16:15 35.603387 -115.771693 47 14193ft 418kts
23-Jul-20 16:16 35.683011 -115.670170 47 13051ft 402kts
23-Jul-20 16:17 35.760047 -115.577058 36 12275ft 389kts
23-Jul-20 16:18 35.851268 -115.517510 27 11056ft 356kts
23-Jul-20 16:19 35.938338 -115.462348 27 11022ft 335kts
23-Jul-20 16:20 36.017813 -115.411300 28 11016ft 316kts
23-Jul-20 16:21 36.099163 -115.384720 351 10942ft 306kts
23-Jul-20 16:22 36.184324 -115.398149 350 10440ft 308kts
23-Jul-20 16:23 36.263482 -115.410817 350 10213ft 277kts
23-Jul-20 16:24 36.336361 -115.399788 51 9602ft 278kts
23-Jul-20 16:25 36.359143 -115.314196 92 8107ft 245kts
23-Jul-20 16:26 36.319306 -115.266390 167 5833ft 208kts
23-Jul-20 16:27 36.269569 -115.242481 155 3654ft 171kts
23-Jul-20 16:28 36.234686 -115.217152 161 2698ft 122kts
23-Jul-20 16:29 36.209514 -115.196171 136 2193ft 68kts
23-Jul-20 16:30 36.204990 -115.191512 253 2172ft 0kts
23-Jul-20 16:31 36.206803 -115.193885 314 2183ft 14kts
23-Jul-20 16:32 36.209417 -115.197200 314 2195ft 13kts

Navigation Log

Ident Type
Flight plan parsing failed, navigation log unavailable